Time;durP1;ratioP1;P1;durP2;ratioP2;P2;SDS_P1;SDS_P2;PMS_P1;PMS_P2;Temp;Humidity;BMP_temperature;BMP_pressure;BME280_temperature;BME280_humidity;BME280_pressure;Samples;Min_cycle;Max_cycle;Signal;HPM_P1;HPM_P2
2022/05/10 00:01:57;;;;;;;;;;;;;;;13.65;77.45;100319.81;5114364;28;19947;-65
2022/05/10 00:04:27;;;;;;;;;;;;;;;13.62;77.50;100314.69;5117477;28;19945;-64
2022/05/10 00:06:56;;;;;;;;;;;;;;;13.60;77.47;100317.25;5118921;28;19977;-65
2022/05/10 00:09:37;;;;;;;;;;;;;;;13.57;77.03;100311.28;5118575;28;19924;-65
2022/05/10 00:12:06;;;;;;;;;;;;;;;13.53;76.74;100310.44;5117540;28;19930;-65
2022/05/10 00:14:35;;;;;;;;;;;;;;;13.50;77.02;100319.84;5118738;28;19959;-66
2022/05/10 00:17:04;;;;;;;;;;;;;;;13.49;76.80;100315.56;5118444;28;19924;-66
2022/05/10 00:19:35;;;;;;;;;;;;;;;13.46;76.91;100321.53;5118651;28;19923;-66
2022/05/10 00:22:04;;;;;;;;;;;;;;;13.41;76.88;100311.28;5118265;28;20010;-66
2022/05/10 00:24:32;;;;;;;;;;;;;;;13.41;76.87;100311.28;5118623;28;19924;-66
2022/05/10 00:27:04;;;;;;;;;;;;;;;13.38;76.45;100306.19;5118131;28;20022;-66
2022/05/10 00:29:33;;;;;;;;;;;;;;;13.37;76.76;100314.72;5118191;28;19924;-66
2022/05/10 00:32:03;;;;;;;;;;;;;;;13.33;76.57;100317.31;5118382;28;19990;-66
2022/05/10 00:34:31;;;;;;;;;;;;;;;13.22;76.80;100304.50;5118077;28;19924;-66
2022/05/10 00:37:27;;;;;;;;;;;;;;;13.13;76.67;100309.63;5118314;28;19969;-66
2022/05/10 00:39:57;;;;;;;;;;;;;;;13.08;77.06;100311.34;5117962;28;19949;-66
2022/05/10 00:42:29;;;;;;;;;;;;;;;13.05;77.39;100306.19;5117944;28;20018;-66
2022/05/10 00:45:03;;;;;;;;;;;;;;;13.06;77.22;100297.69;5118242;28;19924;-65
2022/05/10 00:47:38;;;;;;;;;;;;;;;13.08;77.32;100293.41;5118411;28;19947;-66
2022/05/10 00:50:09;;;;;;;;;;;;;;;13.10;77.07;100298.56;5117917;28;20377;-64
2022/05/10 00:52:41;;;;;;;;;;;;;;;13.11;77.22;100303.66;5117988;28;19959;-67
2022/05/10 00:55:15;;;;;;;;;;;;;;;13.11;77.02;100290.84;5117721;28;19924;-66
2022/05/10 00:57:48;;;;;;;;;;;;;;;13.11;76.62;100288.28;5118045;28;19993;-66
2022/05/10 01:00:20;;;;;;;;;;;;;;;13.06;76.59;100291.69;5117608;28;19924;-66
2022/05/10 01:02:56;;;;;;;;;;;;;;;13.04;76.84;100291.69;5117917;28;19927;-66
2022/05/10 01:05:29;;;;;;;;;;;;;;;13.05;76.99;100290.81;5117618;28;20294;-65
2022/05/10 01:08:01;;;;;;;;;;;;;;;13.05;76.57;100290.81;5117783;28;20285;-66
2022/05/10 01:10:36;;;;;;;;;;;;;;;13.00;76.71;100287.44;5117406;28;19971;-66
2022/05/10 01:13:11;;;;;;;;;;;;;;;12.98;77.01;100286.53;5117394;28;19959;-66
2022/05/10 01:15:41;;;;;;;;;;;;;;;13.00;76.83;100291.69;5117110;28;20014;-66
2022/05/10 01:18:10;;;;;;;;;;;;;;;12.93;76.72;100285.72;5117320;28;19928;-66
2022/05/10 01:20:42;;;;;;;;;;;;;;;12.89;77.20;100278.88;5117271;27;19930;-66
2022/05/10 01:23:26;;;;;;;;;;;;;;;12.82;77.36;100274.59;5116501;28;19928;-66
2022/05/10 01:26:02;;;;;;;;;;;;;;;12.79;77.55;100277.16;5117237;28;19946;-66
2022/05/10 01:28:34;;;;;;;;;;;;;;;12.83;77.58;100276.31;5117106;28;19924;-66
2022/05/10 01:31:05;;;;;;;;;;;;;;;12.84;78.00;100280.56;5116985;28;20023;-66
2022/05/10 01:33:36;;;;;;;;;;;;;;;12.84;77.76;100275.44;5117211;28;19959;-66
2022/05/10 01:36:18;;;;;;;;;;;;;;;12.83;77.57;100268.66;5116760;28;20044;-67
2022/05/10 01:38:56;;;;;;;;;;;;;;;12.83;77.73;100273.75;5116854;28;20022;-66
2022/05/10 01:41:31;;;;;;;;;;;;;;;12.82;77.55;100271.19;5116933;28;19955;-66
2022/05/10 01:44:07;;;;;;;;;;;;;;;12.81;77.29;100272.91;5117075;28;20408;-66
2022/05/10 01:46:36;;;;;;;;;;;;;;;12.86;77.25;100278.88;5116548;28;19923;-66
2022/05/10 01:49:13;;;;;;;;;;;;;;;12.88;77.17;100273.75;5116690;28;19923;-66
2022/05/10 01:51:46;;;;;;;;;;;;;;;12.85;77.44;100274.63;5116972;28;20338;-66
2022/05/10 01:54:34;;;;;;;;;;;;;;;12.82;77.19;100269.47;5116971;28;20018;-66
2022/05/10 01:57:04;;;;;;;;;;;;;;;12.79;77.34;100262.66;5115209;28;19934;-66
2022/05/10 01:59:34;;;;;;;;;;;;;;;12.72;77.31;100262.66;5116477;28;20430;-66
2022/05/10 02:02:13;;;;;;;;;;;;;;;12.72;77.39;100260.09;5116446;28;19931;-66
2022/05/10 02:04:43;;;;;;;;;;;;;;;12.70;77.53;100257.53;5115299;28;19930;-66
2022/05/10 02:07:16;;;;;;;;;;;;;;;12.73;77.36;100259.25;5115377;28;19970;-66
2022/05/10 02:09:47;;;;;;;;;;;;;;;12.74;77.49;100254.13;5116335;28;19930;-66
2022/05/10 02:12:27;;;;;;;;;;;;;;;12.76;77.22;100259.25;5116306;28;20018;-66
2022/05/10 02:15:01;;;;;;;;;;;;;;;12.78;77.32;100260.09;5116469;28;20384;-66
2022/05/10 02:17:33;;;;;;;;;;;;;;;12.77;77.39;100249.00;5116171;28;19928;-66
2022/05/10 02:20:06;;;;;;;;;;;;;;;12.68;77.14;100248.16;5116107;28;19923;-66
2022/05/10 02:22:39;;;;;;;;;;;;;;;12.64;77.12;100251.56;5115923;28;19923;-66
2022/05/10 02:25:11;;;;;;;;;;;;;;;12.61;76.98;100256.69;5116328;28;19967;-66
2022/05/10 02:27:45;;;;;;;;;;;;;;;12.65;76.81;100253.25;5115441;28;20022;-66
2022/05/10 02:30:25;;;;;;;;;;;;;;;12.70;77.30;100251.56;5115866;28;19930;-66
2022/05/10 02:33:09;;;;;;;;;;;;;;;12.71;77.19;100253.28;5115827;28;19931;-66
2022/05/10 02:35:41;;;;;;;;;;;;;;;12.58;76.80;100252.41;5115758;28;19924;-66
2022/05/10 02:38:14;;;;;;;;;;;;;;;12.48;77.33;100244.72;5115996;28;19949;-66
2022/05/10 02:40:44;;;;;;;;;;;;;;;12.46;77.54;100242.16;5116005;28;19923;-66
2022/05/10 02:43:14;;;;;;;;;;;;;;;12.50;77.47;100243.88;5115861;28;19949;-66
2022/05/10 02:45:45;;;;;;;;;;;;;;;12.55;77.21;100237.03;5115923;28;19928;-66
2022/05/10 02:48:15;;;;;;;;;;;;;;;12.56;77.40;100243.03;5115415;28;19938;-66
2022/05/10 02:50:44;;;;;;;;;;;;;;;12.57;77.13;100248.13;5115419;28;19928;-66
2022/05/10 02:53:14;;;;;;;;;;;;;;;12.56;77.23;100248.16;5115430;27;20014;-66
2022/05/10 02:55:45;;;;;;;;;;;;;;;12.59;77.30;100248.16;5115317;28;19924;-66
2022/05/10 02:58:17;;;;;;;;;;;;;;;12.60;77.40;100252.41;5115270;28;19924;-66
2022/05/10 03:00:47;;;;;;;;;;;;;;;12.63;77.41;100247.28;5114364;28;19973;-66
2022/05/10 03:03:18;;;;;;;;;;;;;;;12.60;77.41;100245.59;5115249;28;19968;-66
2022/05/10 03:05:47;;;;;;;;;;;;;;;12.60;77.32;100247.28;5115177;28;19963;-66
2022/05/10 03:08:16;;;;;;;;;;;;;;;12.61;77.23;100246.44;5114910;28;20354;-66
2022/05/10 03:10:45;;;;;;;;;;;;;;;12.60;77.32;100247.28;5115063;28;20019;-66
2022/05/10 03:13:14;;;;;;;;;;;;;;;12.58;77.15;100246.44;5115665;28;19951;-66
2022/05/10 03:15:43;;;;;;;;;;;;;;;12.61;76.93;100251.56;5115251;28;20011;-66
2022/05/10 03:18:13;;;;;;;;;;;;;;;12.56;76.82;100243.88;5115173;28;20010;-66
2022/05/10 03:20:41;;;;;;;;;;;;;;;12.48;76.79;100247.28;5114850;28;19924;-66
2022/05/10 03:23:10;;;;;;;;;;;;;;;12.47;76.76;100249.00;5115086;28;20426;-66
2022/05/10 03:25:39;;;;;;;;;;;;;;;12.46;76.80;100251.53;5114797;28;19982;-66
2022/05/10 03:28:08;;;;;;;;;;;;;;;12.44;76.74;100253.25;5114912;28;20472;-66
2022/05/10 03:30:37;;;;;;;;;;;;;;;12.43;76.85;100251.56;5114763;28;19967;-66
2022/05/10 03:33:06;;;;;;;;;;;;;;;12.48;76.86;100245.56;5114701;28;19927;-66
2022/05/10 03:35:36;;;;;;;;;;;;;;;12.54;76.98;100249.84;5114645;28;19927;-66
2022/05/10 03:38:05;;;;;;;;;;;;;;;12.59;76.79;100258.41;5114193;28;19924;-66
2022/05/10 03:40:33;;;;;;;;;;;;;;;12.63;76.77;100254.97;5114496;28;19923;-66
2022/05/10 03:43:02;;;;;;;;;;;;;;;12.66;76.33;100249.84;5114564;28;19924;-66
2022/05/10 03:45:31;;;;;;;;;;;;;;;12.65;76.43;100248.13;5114563;28;20441;-66
2022/05/10 03:48:00;;;;;;;;;;;;;;;12.63;75.81;100244.72;5114411;28;19953;-66
2022/05/10 03:50:29;;;;;;;;;;;;;;;12.64;76.29;100244.72;5114315;28;19924;-66
2022/05/10 03:52:59;;;;;;;;;;;;;;;12.62;76.29;100243.03;5114482;28;19923;-66
2022/05/10 03:55:29;;;;;;;;;;;;;;;12.65;76.05;100248.13;5114869;28;19930;-66
2022/05/10 03:57:57;;;;;;;;;;;;;;;12.69;75.92;100249.88;5114418;28;19992;-66
2022/05/10 04:00:27;;;;;;;;;;;;;;;12.74;75.95;100248.16;5114276;28;19924;-66
2022/05/10 04:02:56;;;;;;;;;;;;;;;12.71;75.78;100243.03;5114633;28;19930;-66
2022/05/10 04:05:27;;;;;;;;;;;;;;;12.74;75.78;100249.00;5114374;28;19928;-66
2022/05/10 04:07:56;;;;;;;;;;;;;;;12.78;75.89;100250.72;5114568;28;20356;-66
2022/05/10 04:10:26;;;;;;;;;;;;;;;12.80;75.72;100243.03;5114563;28;19923;-66
2022/05/10 04:12:57;;;;;;;;;;;;;;;12.77;75.65;100250.69;5114637;28;20025;-66
2022/05/10 04:15:26;;;;;;;;;;;;;;;12.85;75.59;100245.56;5114271;28;19928;-66
2022/05/10 04:17:55;;;;;;;;;;;;;;;12.88;75.82;100251.56;5114565;28;20006;-66
2022/05/10 04:20:23;;;;;;;;;;;;;;;12.97;75.94;100255.81;5114145;28;19963;-66
2022/05/10 04:22:52;;;;;;;;;;;;;;;13.04;75.73;100248.13;5113206;28;19923;-66
2022/05/10 04:25:25;;;;;;;;;;;;;;;13.09;75.21;100251.56;5114078;28;20014;-66
2022/05/10 04:27:55;;;;;;;;;;;;;;;13.14;74.87;100257.53;5114419;28;19924;-67
2022/05/10 04:30:24;;;;;;;;;;;;;;;13.21;74.90;100263.50;5114456;28;19970;-66
2022/05/10 04:32:53;;;;;;;;;;;;;;;13.30;74.85;100255.78;5114111;28;19977;-66
2022/05/10 04:35:21;;;;;;;;;;;;;;;13.37;74.59;100260.88;5114067;28;19993;-67
2022/05/10 04:37:50;;;;;;;;;;;;;;;13.40;74.55;100266.00;5114316;28;20373;-66
2022/05/10 04:42:59;;;;;;;;;;;;;;;13.66;74.73;100257.38;5113979;28;19924;-66
2022/05/10 04:45:28;;;;;;;;;;;;;;;13.74;74.51;100264.19;5113986;28;20015;-66
2022/05/10 04:47:58;;;;;;;;;;;;;;;13.81;74.64;100265.00;5113863;28;19924;-66
2022/05/10 04:50:27;;;;;;;;;;;;;;;13.91;74.39;100261.53;5116633;28;19969;-66
2022/05/10 04:52:56;;;;;;;;;;;;;;;14.00;73.94;100261.50;5117699;28;20386;-66
2022/05/10 04:55:24;;;;;;;;;;;;;;;14.12;73.73;100261.44;5117707;28;19977;-66
2022/05/10 04:57:53;;;;;;;;;;;;;;;14.27;73.29;100261.34;5116396;28;19923;-66
2022/05/10 05:00:31;;;;;;;;;;;;;;;14.35;72.65;100263.91;5117629;28;20403;-66
2022/05/10 05:03:00;;;;;;;;;;;;;;;14.42;72.86;100266.38;5117861;28;20274;-66
2022/05/10 05:05:29;;;;;;;;;;;;;;;14.52;72.28;100270.59;5117490;28;19930;-66
2022/05/10 05:07:58;;;;;;;;;;;;;;;14.60;72.20;100273.97;5117669;28;19974;-66
2022/05/10 05:10:35;;;;;;;;;;;;;;;14.67;71.50;100273.06;5117385;27;19923;-66
2022/05/10 05:13:03;;;;;;;;;;;;;;;14.73;71.36;100273.00;5117736;28;19977;-66
2022/05/10 05:15:33;;;;;;;;;;;;;;;14.76;70.95;100280.69;5117245;28;19977;-66
2022/05/10 05:18:04;;;;;;;;;;;;;;;14.84;71.11;100274.63;5116266;28;20353;-65
2022/05/10 05:20:42;;;;;;;;;;;;;;;15.01;70.62;100272.78;5117185;28;19930;-66
2022/05/10 05:23:12;;;;;;;;;;;;;;;15.16;70.58;100273.50;5115719;28;19924;-66
2022/05/10 05:25:41;;;;;;;;;;;;;;;15.23;69.80;100274.28;5117730;28;20382;-66
2022/05/10 05:28:11;;;;;;;;;;;;;;;15.38;70.03;100274.09;5116892;28;20022;-66
2022/05/10 05:30:41;;;;;;;;;;;;;;;15.55;69.63;100272.22;5117319;28;19984;-66
2022/05/10 05:33:10;;;;;;;;;;;;;;;15.56;69.19;100273.94;5117148;28;19962;-66
2022/05/10 05:35:39;;;;;;;;;;;;;;;15.66;69.07;100265.25;5116847;28;19924;-66
2022/05/10 05:38:08;;;;;;;;;;;;;;;15.78;68.80;100272.84;5117211;28;19924;-66
2022/05/10 05:40:37;;;;;;;;;;;;;;;15.85;68.41;100273.59;5117185;28;20369;-66
2022/05/10 05:43:16;;;;;;;;;;;;;;;15.90;68.09;100275.25;5116809;28;20353;-67
2022/05/10 05:45:46;;;;;;;;;;;;;;;15.92;67.76;100276.06;5116761;28;19924;-66
2022/05/10 05:48:15;;;;;;;;;;;;;;;15.95;67.40;100277.75;5117258;28;19930;-66
2022/05/10 05:50:53;;;;;;;;;;;;;;;16.02;67.35;100280.25;5117117;28;19924;-66
2022/05/10 05:53:21;;;;;;;;;;;;;;;16.10;67.02;100280.97;5116671;28;20411;-65
2022/05/10 05:55:50;;;;;;;;;;;;;;;16.22;66.70;100271.41;5117198;28;20377;-66
2022/05/10 05:58:18;;;;;;;;;;;;;;;16.31;66.26;100281.56;5116820;28;20018;-66
2022/05/10 06:00:51;;;;;;;;;;;;;;;16.39;65.57;100285.72;5115812;28;19924;-67
2022/05/10 06:03:20;;;;;;;;;;;;;;;16.53;64.94;100280.41;5116366;28;19930;-66
2022/05/10 06:05:50;;;;;;;;;;;;;;;16.58;64.21;100270.88;5116279;28;19988;-67
2022/05/10 06:08:19;;;;;;;;;;;;;;;16.63;64.00;100277.66;5116033;28;19923;-65
2022/05/10 06:10:50;;;;;;;;;;;;;;;16.68;63.95;100277.56;5116481;28;19923;-66
2022/05/10 06:13:21;;;;;;;;;;;;;;;16.79;64.25;100270.53;5115995;28;19931;-66
2022/05/10 06:15:51;;;;;;;;;;;;;;;16.99;64.86;100271.03;5116145;28;20026;-65
2022/05/10 06:18:20;;;;;;;;;;;;;;;17.14;64.67;100270.78;5116365;28;19924;-64
2022/05/10 06:20:49;;;;;;;;;;;;;;;17.22;63.91;100271.50;5115885;28;20011;-67
2022/05/10 06:23:20;;;;;;;;;;;;;;;17.25;63.07;100270.59;5115732;28;20389;-66
2022/05/10 06:25:49;;;;;;;;;;;;;;;17.24;62.71;100279.19;5116295;28;19924;-65
2022/05/10 06:28:19;;;;;;;;;;;;;;;17.30;62.58;100274.75;5116016;28;19923;-67
2022/05/10 06:30:56;;;;;;;;;;;;;;;17.39;62.46;100274.63;5116571;28;19966;-64
2022/05/10 06:33:25;;;;;;;;;;;;;;;17.44;62.35;100272.78;5115922;28;20323;-64
2022/05/10 06:35:54;;;;;;;;;;;;;;;17.52;62.52;100264.06;5115671;28;19970;-64
2022/05/10 06:38:27;;;;;;;;;;;;;;;17.66;62.02;100267.25;5114620;28;19924;-65
2022/05/10 06:40:56;;;;;;;;;;;;;;;17.75;61.63;100256.72;5115895;28;19936;-64
2022/05/10 06:43:30;;;;;;;;;;;;;;;17.92;61.80;100252.06;5115522;28;19946;-64
2022/05/10 06:46:08;;;;;;;;;;;;;;;18.14;61.81;100255.84;5114712;28;19927;-64
2022/05/10 06:48:37;;;;;;;;;;;;;;;18.18;61.23;100251.47;5115318;28;19959;-64
2022/05/10 06:51:16;;;;;;;;;;;;;;;18.26;61.10;100250.41;5115282;27;19924;-64
2022/05/10 06:53:45;;;;;;;;;;;;;;;18.31;60.18;100253.75;5116057;28;20270;-65
2022/05/10 06:56:17;;;;;;;;;;;;;;;18.29;58.95;100250.34;5115283;28;19931;-63
2022/05/10 06:58:46;;;;;;;;;;;;;;;18.33;58.70;100246.81;5115598;28;19924;-66
2022/05/10 07:01:16;;;;;;;;;;;;;;;18.33;57.95;100245.97;5099837;28;19953;-65
2022/05/10 07:03:46;;;;;;;;;;;;;;;18.39;58.11;100251.84;5094580;28;19978;-66
2022/05/10 07:06:16;;;;;;;;;;;;;;;18.47;57.72;100255.16;5095023;28;19932;-65
2022/05/10 07:08:48;;;;;;;;;;;;;;;18.54;57.68;100254.13;5090042;28;19925;-65
2022/05/10 07:11:17;;;;;;;;;;;;;;;18.66;57.50;100253.81;5074419;28;19928;-66
2022/05/10 07:13:46;;;;;;;;;;;;;;;18.76;57.15;100251.00;5076580;28;20290;-66
2022/05/10 07:16:16;;;;;;;;;;;;;;;18.88;56.99;100250.69;5087152;28;19930;-67
2022/05/10 07:18:45;;;;;;;;;;;;;;;19.03;56.33;100250.28;5094597;28;19928;-66
2022/05/10 07:21:13;;;;;;;;;;;;;;;19.17;56.02;100243.84;5094685;28;20369;-65
2022/05/10 07:23:42;;;;;;;;;;;;;;;19.19;55.73;100246.41;5094302;28;19932;-64
2022/05/10 07:26:11;;;;;;;;;;;;;;;19.22;55.69;100246.31;5094276;28;19977;-65
2022/05/10 07:28:42;;;;;;;;;;;;;;;19.24;55.66;100244.56;5092241;28;20343;-64
2022/05/10 07:31:14;;;;;;;;;;;;;;;19.45;56.17;100243.13;5083389;28;19971;-65
2022/05/10 07:33:44;;;;;;;;;;;;;;;19.64;55.54;100245.19;5073958;28;19966;-65
2022/05/10 07:38:53;;;;;;;;;;;;;;;19.89;54.85;100246.16;5087418;28;19977;-65
2022/05/10 07:41:22;;;;;;;;;;;;;;;19.97;54.36;100243.34;5077551;28;19929;-65
2022/05/10 07:43:52;;;;;;;;;;;;;;;20.04;54.22;100239.66;5081552;28;19969;-65
2022/05/10 07:46:20;;;;;;;;;;;;;;;20.18;53.42;100239.25;5090806;28;20309;-66
2022/05/10 07:48:50;;;;;;;;;;;;;;;20.16;53.30;100235.84;5084511;28;19924;-65
2022/05/10 07:51:20;;;;;;;;;;;;;;;20.26;53.22;100234.69;5082440;28;19990;-64
2022/05/10 07:53:49;;;;;;;;;;;;;;;20.33;52.81;100236.19;5083597;28;19931;-64
2022/05/10 07:56:18;;;;;;;;;;;;;;;20.47;52.37;100239.19;5084725;28;20087;-65
2022/05/10 07:58:53;;;;;;;;;;;;;;;20.62;51.67;100229.19;5083971;28;20392;-64
2022/05/10 08:01:22;;;;;;;;;;;;;;;20.71;50.79;100235.81;5082289;28;19931;-65
2022/05/10 08:03:52;;;;;;;;;;;;;;;20.84;50.43;100233.66;5083370;28;19924;-63
2022/05/10 08:06:21;;;;;;;;;;;;;;;20.73;50.34;100230.59;5084398;28;19932;-65
2022/05/10 08:08:50;;;;;;;;;;;;;;;20.67;50.07;100226.44;5083157;28;19952;-64
2022/05/10 08:11:18;;;;;;;;;;;;;;;20.79;50.04;100231.22;5082183;28;20298;-64
2022/05/10 08:13:47;;;;;;;;;;;;;;;20.81;49.61;100232.00;5083487;28;20305;-64
2022/05/10 08:16:19;;;;;;;;;;;;;;;20.93;49.96;100233.34;5089730;28;19968;-63
2022/05/10 08:18:49;;;;;;;;;;;;;;;20.92;49.72;100232.53;5093806;28;19973;-64
2022/05/10 08:21:19;;;;;;;;;;;;;;;21.09;49.48;100222.41;5093727;28;19951;-63
2022/05/10 08:23:52;;;;;;;;;;;;;;;21.21;50.29;100219.38;5093805;28;19950;-65
2022/05/10 08:26:21;;;;;;;;;;;;;;;21.43;50.94;100221.25;5098045;28;19924;-65
2022/05/10 08:28:49;;;;;;;;;;;;;;;21.49;50.25;100215.81;5098118;28;19924;-66
2022/05/10 08:31:25;;;;;;;;;;;;;;;21.63;50.83;100214.41;5097984;28;20377;-65
2022/05/10 08:34:03;;;;;;;;;;;;;;;21.63;50.33;100216.13;5098158;28;19934;-64
2022/05/10 08:36:34;;;;;;;;;;;;;;;21.47;50.26;100217.63;5093363;28;19936;-65
2022/05/10 08:39:03;;;;;;;;;;;;;;;21.47;50.46;100212.41;5084808;28;19928;-65
2022/05/10 08:41:36;;;;;;;;;;;;;;;21.42;50.70;100215.19;5077403;28;20036;-66
2022/05/10 08:44:07;;;;;;;;;;;;;;;21.49;50.38;100216.66;5078755;28;20011;-65
2022/05/10 08:46:41;;;;;;;;;;;;;;;21.55;49.47;100218.16;5091024;28;20042;-65
2022/05/10 08:49:17;;;;;;;;;;;;;;;21.60;48.70;100206.72;5096316;28;20308;-65
2022/05/10 08:51:48;;;;;;;;;;;;;;;21.55;48.87;100212.97;5108675;28;19936;-65
2022/05/10 08:54:17;;;;;;;;;;;;;;;21.59;48.43;100210.22;5096946;28;19928;-65
2022/05/10 08:56:47;;;;;;;;;;;;;;;21.65;48.06;100204.78;5097346;28;19986;-65
2022/05/10 08:59:22;;;;;;;;;;;;;;;21.80;48.18;100203.38;5097152;28;20366;-66
2022/05/10 09:01:57;;;;;;;;;;;;;;;21.97;48.52;100206.19;5097225;28;19924;-65
2022/05/10 09:04:37;;;;;;;;;;;;;;;22.13;48.73;100206.44;5097472;28;20017;-65
2022/05/10 09:07:13;;;;;;;;;;;;;;;22.24;48.18;100205.13;5097194;28;19928;-65
2022/05/10 09:09:50;;;;;;;;;;;;;;;22.45;48.59;100198.19;5097229;28;19924;-65
2022/05/10 09:12:21;;;;;;;;;;;;;;;22.48;47.58;100201.50;5097070;28;19924;-65
2022/05/10 09:14:51;;;;;;;;;;;;;;;22.66;45.36;100195.59;5096944;28;19924;-65
2022/05/10 09:17:20;;;;;;;;;;;;;;;22.76;42.13;100200.41;5096561;28;19935;-65
2022/05/10 09:19:49;;;;;;;;;;;;;;;22.79;40.23;100197.69;5096412;28;20014;-67
2022/05/10 09:22:52;;;;;;;;;;;;;;;22.78;38.03;100191.63;5096478;28;20019;-66
2022/05/10 09:25:27;;;;;;;;;;;;;;;22.78;37.51;100190.75;5095164;28;19924;-69
2022/05/10 09:27:56;;;;;;;;;;;;;;;22.75;37.43;100198.72;5096683;28;19998;-66
2022/05/10 09:30:26;;;;;;;;;;;;;;;22.79;37.21;100192.47;5096686;28;20293;-68
2022/05/10 09:35:56;;;;;;;;;;;;;;;22.97;38.06;100186.47;5095670;28;19924;-67
2022/05/10 09:38:24;;;;;;;;;;;;;;;22.96;37.80;100180.41;5096440;28;20023;-66
2022/05/10 09:40:54;;;;;;;;;;;;;;;22.94;38.72;100182.22;5097302;28;19969;-67
2022/05/10 09:43:27;;;;;;;;;;;;;;;22.93;38.24;100182.31;5096593;28;19924;-66
2022/05/10 09:46:11;;;;;;;;;;;;;;;23.05;38.82;100184.38;5096671;28;19924;-66
2022/05/10 09:48:40;;;;;;;;;;;;;;;23.23;38.91;100171.38;5096735;28;19924;-66
2022/05/10 09:51:19;;;;;;;;;;;;;;;23.41;40.53;100177.56;5096512;28;20438;-66
2022/05/10 09:53:48;;;;;;;;;;;;;;;23.55;39.60;100180.41;5098406;28;19924;-66
2022/05/10 09:56:30;;;;;;;;;;;;;;;23.55;38.76;100175.19;5096342;28;20404;-66
2022/05/10 09:59:00;;;;;;;;;;;;;;;23.53;38.22;100177.03;5096106;28;19950;-66
2022/05/10 10:01:39;;;;;;;;;;;;;;;23.59;38.52;100176.72;5095923;28;19924;-67
2022/05/10 10:04:15;;;;;;;;;;;;;;;23.72;39.17;100177.84;5096215;28;19924;-66
2022/05/10 10:06:44;;;;;;;;;;;;;;;23.86;39.67;100165.00;5096430;28;20298;-66
2022/05/10 10:09:28;;;;;;;;;;;;;;;23.91;39.29;100168.25;5096005;28;19950;-66
2022/05/10 10:12:00;;;;;;;;;;;;;;;24.07;40.24;100154.53;5094924;28;19924;-68
2022/05/10 10:14:39;;;;;;;;;;;;;;;23.87;39.17;100156.25;5096274;28;20330;-66
2022/05/10 10:17:16;;;;;;;;;;;;;;;23.96;38.95;100155.84;5096067;28;20114;-66
2022/05/10 10:19:48;;;;;;;;;;;;;;;23.96;38.49;100160.22;5095819;28;19924;-66
2022/05/10 10:22:19;;;;;;;;;;;;;;;23.80;38.48;100154.84;5095653;28;19928;-66
2022/05/10 10:24:50;;;;;;;;;;;;;;;23.54;38.01;100152.63;5095701;28;19931;-66
2022/05/10 10:27:24;;;;;;;;;;;;;;;23.76;38.88;100142.91;5095867;28;19924;-66
2022/05/10 10:29:55;;;;;;;;;;;;;;;24.06;38.42;100142.34;5095496;28;19924;-66
2022/05/10 10:32:28;;;;;;;;;;;;;;;24.36;39.05;100141.72;5094834;28;19928;-66
2022/05/10 10:35:04;;;;;;;;;;;;;;;24.50;38.77;100141.03;5095238;28;20001;-66
2022/05/10 10:37:37;;;;;;;;;;;;;;;24.54;38.20;100132.97;5095720;28;19990;-66
2022/05/10 10:40:11;;;;;;;;;;;;;;;24.61;38.28;100128.28;5095058;28;20369;-66
2022/05/10 10:42:49;;;;;;;;;;;;;;;24.39;37.44;100132.91;5095192;28;19970;-65
2022/05/10 10:45:22;;;;;;;;;;;;;;;24.24;38.34;100128.44;5095139;28;19932;-66
2022/05/10 10:47:55;;;;;;;;;;;;;;;24.02;37.93;100127.78;5094744;28;19924;-65
2022/05/10 10:50:25;;;;;;;;;;;;;;;24.00;37.01;100120.00;5095210;28;19973;-66
2022/05/10 10:52:56;;;;;;;;;;;;;;;24.00;36.96;100110.44;5095119;28;20460;-66
2022/05/10 10:55:28;;;;;;;;;;;;;;;24.31;38.33;100108.94;5095588;28;19928;-66
2022/05/10 10:58:04;;;;;;;;;;;;;;;24.46;38.39;100102.94;5095211;28;20285;-65
2022/05/10 11:00:35;;;;;;;;;;;;;;;24.65;39.24;100103.69;5094831;28;20007;-66
2022/05/10 11:03:18;;;;;;;;;;;;;;;24.61;38.35;100096.97;5095453;28;20449;-65
2022/05/10 11:05:58;;;;;;;;;;;;;;;24.72;39.51;100105.06;5092872;28;19932;-66
2022/05/10 11:08:35;;;;;;;;;;;;;;;24.97;38.01;100104.66;5094778;28;19924;-65
2022/05/10 11:11:08;;;;;;;;;;;;;;;25.26;36.56;100099.59;5093423;28;19928;-66
2022/05/10 11:13:42;;;;;;;;;;;;;;;25.24;34.71;100098.78;5094620;28;19932;-66
2022/05/10 11:16:24;;;;;;;;;;;;;;;25.39;35.12;100091.91;5094729;28;19928;-65
2022/05/10 11:19:04;;;;;;;;;;;;;;;25.46;33.98;100102.91;5094454;28;19924;-65
2022/05/10 11:21:37;;;;;;;;;;;;;;;25.37;34.86;100090.28;5094797;28;20393;-64
2022/05/10 11:24:10;;;;;;;;;;;;;;;25.58;36.47;100089.97;5094268;28;19931;-64
2022/05/10 11:26:54;;;;;;;;;;;;;;;25.79;35.97;100085.34;5093798;28;20472;-64
2022/05/10 11:29:32;;;;;;;;;;;;;;;25.89;35.44;100084.72;5093911;28;19989;-64
2022/05/10 11:32:09;;;;;;;;;;;;;;;25.87;36.35;100078.72;5094268;28;19985;-64
2022/05/10 11:34:48;;;;;;;;;;;;;;;26.05;36.91;100076.00;5094680;28;20393;-66
2022/05/10 11:37:20;;;;;;;;;;;;;;;26.26;36.70;100070.38;5094644;28;19977;-66
2022/05/10 11:40:00;;;;;;;;;;;;;;;26.06;35.55;100065.44;5093969;28;20357;-65
2022/05/10 11:42:32;;;;;;;;;;;;;;;25.66;34.84;100066.03;5094327;28;20040;-65
2022/05/10 11:45:11;;;;;;;;;;;;;;;25.83;36.68;100060.69;5094488;28;19928;-66
2022/05/10 11:47:52;;;;;;;;;;;;;;;25.94;34.42;100058.28;5094036;28;20469;-66
2022/05/10 11:50:39;;;;;;;;;;;;;;;26.18;35.69;100051.66;5094536;28;20445;-66
2022/05/10 11:53:19;;;;;;;;;;;;;;;26.09;35.40;100046.94;5093998;28;19924;-65
2022/05/10 11:55:50;;;;;;;;;;;;;;;26.03;35.96;100052.53;5094966;28;20331;-66
2022/05/10 11:58:23;;;;;;;;;;;;;;;26.12;35.50;100038.94;5094792;28;19924;-66
2022/05/10 12:00:52;;;;;;;;;;;;;;;26.24;35.24;100043.47;5093963;28;19985;-66
2022/05/10 12:03:33;;;;;;;;;;;;;;;26.40;35.39;100038.97;5094347;28;19931;-66
2022/05/10 12:06:18;;;;;;;;;;;;;;;26.43;33.83;100041.44;5094086;28;20377;-66
2022/05/10 12:08:48;;;;;;;;;;;;;;;26.59;32.86;100033.47;5094558;28;19959;-65
2022/05/10 12:11:38;;;;;;;;;;;;;;;26.53;32.08;100036.47;5094399;28;19964;-65
2022/05/10 12:22:49;;;;;;;;;;;;;;;26.06;31.76;100020.94;5093721;28;19924;-64
2022/05/10 12:25:37;;;;;;;;;;;;;;;26.13;31.58;100018.84;5093836;28;19925;-66
2022/05/10 12:28:07;;;;;;;;;;;;;;;26.17;31.85;100013.34;5083889;28;19924;-65
2022/05/10 12:30:37;;;;;;;;;;;;;;;25.95;31.40;100003.28;5093935;28;20382;-64
2022/05/10 12:33:35;;;;;;;;;;;;;;;25.81;32.61;99995.38;5093576;28;19928;-66
2022/05/10 12:36:07;;;;;;;;;;;;;;;25.76;35.20;99996.56;5071252;28;19929;-65
2022/05/10 12:38:44;;;;;;;;;;;;;;;25.47;34.21;100005.25;5071722;28;19959;-65
2022/05/10 12:41:24;;;;;;;;;;;;;;;25.20;34.87;99997.97;5071315;28;19924;-64
2022/05/10 12:44:06;;;;;;;;;;;;;;;25.16;34.97;99996.47;5071565;28;19924;-65
2022/05/10 12:46:47;;;;;;;;;;;;;;;25.12;34.67;99989.72;5071648;28;19928;-65
2022/05/10 12:49:27;;;;;;;;;;;;;;;25.15;35.85;99978.25;5071472;28;19931;-67
2022/05/10 12:52:12;;;;;;;;;;;;;;;24.69;37.43;99979.88;5071628;28;19999;-64
2022/05/10 12:54:45;;;;;;;;;;;;;;;24.94;38.73;99975.06;5071259;28;19974;-64
2022/05/10 12:57:18;;;;;;;;;;;;;;;25.19;38.26;99972.78;5071200;28;19974;-64
2022/05/10 12:59:53;;;;;;;;;;;;;;;25.41;36.82;99968.97;5071212;28;19924;-64
2022/05/10 13:02:24;;;;;;;;;;;;;;;25.61;36.54;99958.22;5071129;28;19929;-64
2022/05/10 13:04:55;;;;;;;;;;;;;;;25.66;34.94;99953.56;5071563;28;19924;-65
2022/05/10 13:07:34;;;;;;;;;;;;;;;25.66;36.53;99948.34;5085549;28;20350;-67
2022/05/10 13:10:05;;;;;;;;;;;;;;;25.54;37.65;99949.06;5093841;28;19930;-66
2022/05/10 13:12:36;;;;;;;;;;;;;;;25.52;38.45;99937.84;5097278;28;20444;-65
2022/05/10 13:15:10;;;;;;;;;;;;;;;25.51;38.75;99949.22;5096851;28;19924;-65
2022/05/10 13:17:43;;;;;;;;;;;;;;;25.17;36.30;99947.69;5096888;28;19924;-66
2022/05/10 13:20:17;;;;;;;;;;;;;;;25.00;36.06;99947.78;5096819;28;19935;-65
2022/05/10 13:22:51;;;;;;;;;;;;;;;25.13;36.41;99943.53;5096629;28;19928;-64